sensor_id;sensor_type;location;lat;lon;timestamp;temperature;humidity
25352;DHT22;13304;48.464;8.712;2023-08-06T00:01:37;18.50;73.80
25352;DHT22;13304;48.464;8.712;2023-08-06T00:04:03;18.40;73.70
25352;DHT22;13304;48.464;8.712;2023-08-06T00:06:28;18.40;73.80
25352;DHT22;13304;48.464;8.712;2023-08-06T00:08:54;18.40;74.00
25352;DHT22;13304;48.464;8.712;2023-08-06T00:11:20;18.30;74.10
25352;DHT22;13304;48.464;8.712;2023-08-06T00:13:46;18.30;74.20
25352;DHT22;13304;48.464;8.712;2023-08-06T00:16:12;18.30;74.10
25352;DHT22;13304;48.464;8.712;2023-08-06T00:18:39;18.30;74.20
25352;DHT22;13304;48.464;8.712;2023-08-06T00:21:05;18.30;74.10
25352;DHT22;13304;48.464;8.712;2023-08-06T00:23:32;18.30;74.00
25352;DHT22;13304;48.464;8.712;2023-08-06T00:25:57;18.20;73.80
25352;DHT22;13304;48.464;8.712;2023-08-06T00:28:23;18.20;73.80
25352;DHT22;13304;48.464;8.712;2023-08-06T00:30:55;18.20;74.00
25352;DHT22;13304;48.464;8.712;2023-08-06T00:33:22;18.20;74.00
25352;DHT22;13304;48.464;8.712;2023-08-06T00:35:48;18.20;74.00
25352;DHT22;13304;48.464;8.712;2023-08-06T00:38:13;18.20;74.00
25352;DHT22;13304;48.464;8.712;2023-08-06T00:40:39;18.20;74.90
25352;DHT22;13304;48.464;8.712;2023-08-06T00:43:05;18.20;73.90
25352;DHT22;13304;48.464;8.712;2023-08-06T00:45:34;18.20;73.70
25352;DHT22;13304;48.464;8.712;2023-08-06T00:48:01;18.20;73.50
25352;DHT22;13304;48.464;8.712;2023-08-06T00:50:27;18.20;73.50
25352;DHT22;13304;48.464;8.712;2023-08-06T00:52:53;18.20;73.30
25352;DHT22;13304;48.464;8.712;2023-08-06T00:55:19;18.30;73.30
25352;DHT22;13304;48.464;8.712;2023-08-06T00:57:45;18.30;74.00
25352;DHT22;13304;48.464;8.712;2023-08-06T01:00:11;18.20;73.10
25352;DHT22;13304;48.464;8.712;2023-08-06T01:02:37;18.20;73.20
25352;DHT22;13304;48.464;8.712;2023-08-06T01:05:03;18.30;73.20
25352;DHT22;13304;48.464;8.712;2023-08-06T01:07:47;18.20;73.10
25352;DHT22;13304;48.464;8.712;2023-08-06T01:10:33;18.20;73.20
25352;DHT22;13304;48.464;8.712;2023-08-06T01:15:49;18.10;73.20
25352;DHT22;13304;48.464;8.712;2023-08-06T01:18:16;18.10;73.20
25352;DHT22;13304;48.464;8.712;2023-08-06T01:20:42;18.10;73.20
25352;DHT22;13304;48.464;8.712;2023-08-06T01:23:07;18.10;73.20
25352;DHT22;13304;48.464;8.712;2023-08-06T01:25:37;18.10;73.30
25352;DHT22;13304;48.464;8.712;2023-08-06T01:28:13;18.00;73.20
25352;DHT22;13304;48.464;8.712;2023-08-06T01:30:42;18.00;73.30
25352;DHT22;13304;48.464;8.712;2023-08-06T01:33:11;18.00;73.40
25352;DHT22;13304;48.464;8.712;2023-08-06T01:35:40;17.90;73.30
25352;DHT22;13304;48.464;8.712;2023-08-06T01:38:07;17.90;73.50
25352;DHT22;13304;48.464;8.712;2023-08-06T01:40:33;17.90;73.40
25352;DHT22;13304;48.464;8.712;2023-08-06T01:43:00;17.90;73.50
25352;DHT22;13304;48.464;8.712;2023-08-06T01:45:25;17.80;73.40
25352;DHT22;13304;48.464;8.712;2023-08-06T01:47:51;17.80;73.50
25352;DHT22;13304;48.464;8.712;2023-08-06T01:50:17;17.80;73.70
25352;DHT22;13304;48.464;8.712;2023-08-06T01:52:42;17.80;73.90
25352;DHT22;13304;48.464;8.712;2023-08-06T01:55:08;17.80;74.20
25352;DHT22;13304;48.464;8.712;2023-08-06T01:57:34;17.80;74.40
25352;DHT22;13304;48.464;8.712;2023-08-06T01:59:59;17.80;74.40
25352;DHT22;13304;48.464;8.712;2023-08-06T02:02:25;17.80;74.30
25352;DHT22;13304;48.464;8.712;2023-08-06T02:04:51;17.80;74.20
25352;DHT22;13304;48.464;8.712;2023-08-06T02:07:17;17.80;74.20
25352;DHT22;13304;48.464;8.712;2023-08-06T02:09:42;17.80;74.30
25352;DHT22;13304;48.464;8.712;2023-08-06T02:12:08;17.80;74.30
25352;DHT22;13304;48.464;8.712;2023-08-06T02:14:34;17.80;74.30
25352;DHT22;13304;48.464;8.712;2023-08-06T02:17:00;17.80;74.30
25352;DHT22;13304;48.464;8.712;2023-08-06T02:19:26;17.80;74.30
25352;DHT22;13304;48.464;8.712;2023-08-06T02:21:51;17.80;74.30
25352;DHT22;13304;48.464;8.712;2023-08-06T02:24:17;17.80;74.30
25352;DHT22;13304;48.464;8.712;2023-08-06T02:26:43;17.80;74.40
25352;DHT22;13304;48.464;8.712;2023-08-06T02:29:08;17.80;74.40
25352;DHT22;13304;48.464;8.712;2023-08-06T02:31:34;17.80;74.30
25352;DHT22;13304;48.464;8.712;2023-08-06T02:34:00;17.80;74.50
25352;DHT22;13304;48.464;8.712;2023-08-06T02:36:25;17.80;74.60
25352;DHT22;13304;48.464;8.712;2023-08-06T02:38:55;17.80;74.60
25352;DHT22;13304;48.464;8.712;2023-08-06T02:41:20;17.70;74.60
25352;DHT22;13304;48.464;8.712;2023-08-06T02:43:46;17.80;74.80
25352;DHT22;13304;48.464;8.712;2023-08-06T02:46:12;17.80;75.10
25352;DHT22;13304;48.464;8.712;2023-08-06T02:48:37;17.80;75.50
25352;DHT22;13304;48.464;8.712;2023-08-06T02:51:03;17.80;75.50
25352;DHT22;13304;48.464;8.712;2023-08-06T02:53:29;17.80;76.00
25352;DHT22;13304;48.464;8.712;2023-08-06T02:55:54;17.80;76.50
25352;DHT22;13304;48.464;8.712;2023-08-06T02:58:20;17.70;76.50
25352;DHT22;13304;48.464;8.712;2023-08-06T03:01:02;17.70;76.70
25352;DHT22;13304;48.464;8.712;2023-08-06T03:03:30;17.70;77.30
25352;DHT22;13304;48.464;8.712;2023-08-06T03:05:56;17.70;77.30
25352;DHT22;13304;48.464;8.712;2023-08-06T03:08:21;17.60;77.40
25352;DHT22;13304;48.464;8.712;2023-08-06T03:10:49;17.60;78.00
25352;DHT22;13304;48.464;8.712;2023-08-06T03:13:15;17.60;78.70
25352;DHT22;13304;48.464;8.712;2023-08-06T03:15:41;17.60;78.80
25352;DHT22;13304;48.464;8.712;2023-08-06T03:18:07;17.60;78.90
25352;DHT22;13304;48.464;8.712;2023-08-06T03:20:32;17.50;79.20
25352;DHT22;13304;48.464;8.712;2023-08-06T03:22:58;17.50;79.30
25352;DHT22;13304;48.464;8.712;2023-08-06T03:25:24;17.50;79.90
25352;DHT22;13304;48.464;8.712;2023-08-06T03:27:49;17.50;79.70
25352;DHT22;13304;48.464;8.712;2023-08-06T03:30:15;17.50;79.80
25352;DHT22;13304;48.464;8.712;2023-08-06T03:32:41;17.50;80.40
25352;DHT22;13304;48.464;8.712;2023-08-06T03:35:07;17.50;80.20
25352;DHT22;13304;48.464;8.712;2023-08-06T03:37:32;17.50;80.30
25352;DHT22;13304;48.464;8.712;2023-08-06T03:39:58;17.50;80.60
25352;DHT22;13304;48.464;8.712;2023-08-06T03:42:24;17.50;81.10
25352;DHT22;13304;48.464;8.712;2023-08-06T03:44:49;17.50;81.30
25352;DHT22;13304;48.464;8.712;2023-08-06T03:47:15;17.50;81.00
25352;DHT22;13304;48.464;8.712;2023-08-06T03:49:41;17.50;80.90
25352;DHT22;13304;48.464;8.712;2023-08-06T03:52:06;17.50;80.90
25352;DHT22;13304;48.464;8.712;2023-08-06T03:54:32;17.40;81.10
25352;DHT22;13304;48.464;8.712;2023-08-06T03:56:59;17.40;80.90
25352;DHT22;13304;48.464;8.712;2023-08-06T03:59:25;17.40;81.30
25352;DHT22;13304;48.464;8.712;2023-08-06T04:01:50;17.30;81.30
25352;DHT22;13304;48.464;8.712;2023-08-06T04:04:16;17.40;81.40
25352;DHT22;13304;48.464;8.712;2023-08-06T04:06:42;17.30;81.90
25352;DHT22;13304;48.464;8.712;2023-08-06T04:09:07;17.30;81.60
25352;DHT22;13304;48.464;8.712;2023-08-06T04:11:33;17.30;81.60
25352;DHT22;13304;48.464;8.712;2023-08-06T04:13:59;17.20;81.60
25352;DHT22;13304;48.464;8.712;2023-08-06T04:16:24;17.20;81.40
25352;DHT22;13304;48.464;8.712;2023-08-06T04:18:51;17.20;81.30
25352;DHT22;13304;48.464;8.712;2023-08-06T04:21:19;17.20;81.80
25352;DHT22;13304;48.464;8.712;2023-08-06T04:23:44;17.20;81.10
25352;DHT22;13304;48.464;8.712;2023-08-06T04:26:10;17.10;81.50
25352;DHT22;13304;48.464;8.712;2023-08-06T04:28:36;17.10;81.40
25352;DHT22;13304;48.464;8.712;2023-08-06T04:31:01;17.10;81.60
25352;DHT22;13304;48.464;8.712;2023-08-06T04:33:27;17.10;81.40
25352;DHT22;13304;48.464;8.712;2023-08-06T04:35:56;17.00;81.30
25352;DHT22;13304;48.464;8.712;2023-08-06T04:38:25;17.00;81.50
25352;DHT22;13304;48.464;8.712;2023-08-06T04:40:51;17.00;81.50
25352;DHT22;13304;48.464;8.712;2023-08-06T04:43:17;17.00;81.40
25352;DHT22;13304;48.464;8.712;2023-08-06T04:45:47;17.00;81.70
25352;DHT22;13304;48.464;8.712;2023-08-06T04:48:13;17.00;81.80
25352;DHT22;13304;48.464;8.712;2023-08-06T04:50:46;17.10;81.90
25352;DHT22;13304;48.464;8.712;2023-08-06T04:53:12;17.10;81.90
25352;DHT22;13304;48.464;8.712;2023-08-06T04:55:38;17.10;81.80
25352;DHT22;13304;48.464;8.712;2023-08-06T04:58:04;17.10;81.70
25352;DHT22;13304;48.464;8.712;2023-08-06T05:00:30;17.10;81.90
25352;DHT22;13304;48.464;8.712;2023-08-06T05:02:55;17.10;81.80
25352;DHT22;13304;48.464;8.712;2023-08-06T05:05:21;17.10;82.00
25352;DHT22;13304;48.464;8.712;2023-08-06T05:07:49;17.20;81.90
25352;DHT22;13304;48.464;8.712;2023-08-06T05:10:15;17.20;82.00
25352;DHT22;13304;48.464;8.712;2023-08-06T05:12:40;17.20;82.00
25352;DHT22;13304;48.464;8.712;2023-08-06T05:15:06;17.20;82.10
25352;DHT22;13304;48.464;8.712;2023-08-06T05:17:32;17.20;82.00
25352;DHT22;13304;48.464;8.712;2023-08-06T05:19:58;17.20;81.90
25352;DHT22;13304;48.464;8.712;2023-08-06T05:22:24;17.20;81.90
25352;DHT22;13304;48.464;8.712;2023-08-06T05:24:52;17.20;81.80
25352;DHT22;13304;48.464;8.712;2023-08-06T05:27:17;17.20;82.20
25352;DHT22;13304;48.464;8.712;2023-08-06T05:29:47;17.20;82.10
25352;DHT22;13304;48.464;8.712;2023-08-06T05:32:13;17.20;82.30
25352;DHT22;13304;48.464;8.712;2023-08-06T05:34:39;17.20;82.30
25352;DHT22;13304;48.464;8.712;2023-08-06T05:37:05;17.20;82.30
25352;DHT22;13304;48.464;8.712;2023-08-06T05:39:30;17.20;82.30
25352;DHT22;13304;48.464;8.712;2023-08-06T05:41:56;17.20;82.50
25352;DHT22;13304;48.464;8.712;2023-08-06T05:44:23;17.20;82.60
25352;DHT22;13304;48.464;8.712;2023-08-06T05:46:49;17.20;82.90
25352;DHT22;13304;48.464;8.712;2023-08-06T05:49:15;17.10;83.10
25352;DHT22;13304;48.464;8.712;2023-08-06T05:51:41;17.20;83.60
25352;DHT22;13304;48.464;8.712;2023-08-06T05:54:07;17.20;83.70
25352;DHT22;13304;48.464;8.712;2023-08-06T05:56:33;17.20;83.60
25352;DHT22;13304;48.464;8.712;2023-08-06T05:58:59;17.20;84.10
25352;DHT22;13304;48.464;8.712;2023-08-06T06:01:24;17.20;84.20
25352;DHT22;13304;48.464;8.712;2023-08-06T06:03:50;17.20;84.10
25352;DHT22;13304;48.464;8.712;2023-08-06T06:06:15;17.20;84.00
25352;DHT22;13304;48.464;8.712;2023-08-06T06:08:43;17.20;84.50
25352;DHT22;13304;48.464;8.712;2023-08-06T06:11:14;17.20;84.80
25352;DHT22;13304;48.464;8.712;2023-08-06T06:13:42;17.10;85.30
25352;DHT22;13304;48.464;8.712;2023-08-06T06:16:08;17.10;85.30
25352;DHT22;13304;48.464;8.712;2023-08-06T06:18:33;17.20;85.30
25352;DHT22;13304;48.464;8.712;2023-08-06T06:20:59;17.10;85.10
25352;DHT22;13304;48.464;8.712;2023-08-06T06:23:25;17.10;85.00
25352;DHT22;13304;48.464;8.712;2023-08-06T06:25:51;17.10;85.20
25352;DHT22;13304;48.464;8.712;2023-08-06T06:28:21;17.10;85.10
25352;DHT22;13304;48.464;8.712;2023-08-06T06:30:47;17.10;84.70
25352;DHT22;13304;48.464;8.712;2023-08-06T06:33:13;17.10;84.90
25352;DHT22;13304;48.464;8.712;2023-08-06T06:35:39;17.10;84.70
25352;DHT22;13304;48.464;8.712;2023-08-06T06:38:04;17.00;85.10
25352;DHT22;13304;48.464;8.712;2023-08-06T06:40:30;17.00;84.90
25352;DHT22;13304;48.464;8.712;2023-08-06T06:43:02;17.00;85.10
25352;DHT22;13304;48.464;8.712;2023-08-06T06:45:30;16.90;85.20
25352;DHT22;13304;48.464;8.712;2023-08-06T06:47:55;16.90;85.10
25352;DHT22;13304;48.464;8.712;2023-08-06T06:50:21;16.80;85.60
25352;DHT22;13304;48.464;8.712;2023-08-06T06:52:49;16.80;85.90
25352;DHT22;13304;48.464;8.712;2023-08-06T06:55:15;16.70;86.30
25352;DHT22;13304;48.464;8.712;2023-08-06T06:57:43;16.70;86.30
25352;DHT22;13304;48.464;8.712;2023-08-06T07:00:14;16.70;86.60
25352;DHT22;13304;48.464;8.712;2023-08-06T07:02:42;16.60;87.10
25352;DHT22;13304;48.464;8.712;2023-08-06T07:05:08;16.60;87.40
25352;DHT22;13304;48.464;8.712;2023-08-06T07:07:38;16.60;87.50
25352;DHT22;13304;48.464;8.712;2023-08-06T07:10:06;16.60;87.70
25352;DHT22;13304;48.464;8.712;2023-08-06T07:12:34;16.60;87.80
25352;DHT22;13304;48.464;8.712;2023-08-06T07:15:06;16.60;87.70
25352;DHT22;13304;48.464;8.712;2023-08-06T07:17:34;16.70;87.80
25352;DHT22;13304;48.464;8.712;2023-08-06T07:19:59;16.60;88.00
25352;DHT22;13304;48.464;8.712;2023-08-06T07:22:27;16.70;88.20
25352;DHT22;13304;48.464;8.712;2023-08-06T07:24:55;16.70;88.20
25352;DHT22;13304;48.464;8.712;2023-08-06T07:27:24;16.70;88.30
25352;DHT22;13304;48.464;8.712;2023-08-06T07:29:50;16.80;88.30
25352;DHT22;13304;48.464;8.712;2023-08-06T07:32:18;16.80;88.20
25352;DHT22;13304;48.464;8.712;2023-08-06T07:34:44;16.80;88.30
25352;DHT22;13304;48.464;8.712;2023-08-06T07:37:09;16.80;88.30
25352;DHT22;13304;48.464;8.712;2023-08-06T07:39:35;16.80;88.30
25352;DHT22;13304;48.464;8.712;2023-08-06T07:42:06;16.90;88.50
25352;DHT22;13304;48.464;8.712;2023-08-06T07:44:32;16.80;88.40
25352;DHT22;13304;48.464;8.712;2023-08-06T07:47:00;16.90;88.40
25352;DHT22;13304;48.464;8.712;2023-08-06T07:49:28;16.90;88.10
25352;DHT22;13304;48.464;8.712;2023-08-06T07:51:56;16.90;88.00
25352;DHT22;13304;48.464;8.712;2023-08-06T07:54:24;16.90;87.90
25352;DHT22;13304;48.464;8.712;2023-08-06T07:56:50;16.90;88.60
25352;DHT22;13304;48.464;8.712;2023-08-06T07:59:18;16.90;87.80
25352;DHT22;13304;48.464;8.712;2023-08-06T08:01:45;16.90;87.90
25352;DHT22;13304;48.464;8.712;2023-08-06T08:04:13;16.90;87.70
25352;DHT22;13304;48.464;8.712;2023-08-06T08:06:41;16.90;88.00
25352;DHT22;13304;48.464;8.712;2023-08-06T08:09:06;16.90;88.20
25352;DHT22;13304;48.464;8.712;2023-08-06T08:11:32;16.90;88.40
25352;DHT22;13304;48.464;8.712;2023-08-06T08:13:58;17.00;88.60
25352;DHT22;13304;48.464;8.712;2023-08-06T08:16:23;16.90;88.50
25352;DHT22;13304;48.464;8.712;2023-08-06T08:18:51;17.00;89.00
25352;DHT22;13304;48.464;8.712;2023-08-06T08:21:17;17.00;89.40
25352;DHT22;13304;48.464;8.712;2023-08-06T08:23:43;17.00;89.70
25352;DHT22;13304;48.464;8.712;2023-08-06T08:26:11;17.10;90.00
25352;DHT22;13304;48.464;8.712;2023-08-06T08:28:37;17.10;90.00
25352;DHT22;13304;48.464;8.712;2023-08-06T08:31:03;17.20;89.90
25352;DHT22;13304;48.464;8.712;2023-08-06T08:33:31;17.20;89.50
25352;DHT22;13304;48.464;8.712;2023-08-06T08:35:57;17.20;89.30
25352;DHT22;13304;48.464;8.712;2023-08-06T08:38:23;17.30;89.30
25352;DHT22;13304;48.464;8.712;2023-08-06T08:40:52;17.30;89.20
25352;DHT22;13304;48.464;8.712;2023-08-06T08:43:21;17.30;89.00
25352;DHT22;13304;48.464;8.712;2023-08-06T08:45:50;17.40;88.70
25352;DHT22;13304;48.464;8.712;2023-08-06T08:48:16;17.40;88.60
25352;DHT22;13304;48.464;8.712;2023-08-06T08:50:47;17.30;89.00
25352;DHT22;13304;48.464;8.712;2023-08-06T08:53:18;17.40;89.00
25352;DHT22;13304;48.464;8.712;2023-08-06T08:55:49;17.40;89.00
25352;DHT22;13304;48.464;8.712;2023-08-06T08:58:17;17.40;88.60
25352;DHT22;13304;48.464;8.712;2023-08-06T09:00:45;17.50;89.00
25352;DHT22;13304;48.464;8.712;2023-08-06T09:03:13;17.50;88.90
25352;DHT22;13304;48.464;8.712;2023-08-06T09:05:44;17.50;89.20
25352;DHT22;13304;48.464;8.712;2023-08-06T09:08:11;17.50;89.00
25352;DHT22;13304;48.464;8.712;2023-08-06T09:10:39;17.50;88.60
25352;DHT22;13304;48.464;8.712;2023-08-06T09:13:04;17.50;88.00
25352;DHT22;13304;48.464;8.712;2023-08-06T09:15:32;17.50;87.80
25352;DHT22;13304;48.464;8.712;2023-08-06T09:18:09;17.40;87.50
25352;DHT22;13304;48.464;8.712;2023-08-06T09:20:38;17.30;87.20
25352;DHT22;13304;48.464;8.712;2023-08-06T09:23:08;17.30;87.30
25352;DHT22;13304;48.464;8.712;2023-08-06T09:25:39;17.20;87.20
25352;DHT22;13304;48.464;8.712;2023-08-06T09:28:10;17.30;87.30
25352;DHT22;13304;48.464;8.712;2023-08-06T09:30:38;17.20;87.50
25352;DHT22;13304;48.464;8.712;2023-08-06T09:33:18;17.10;87.70
25352;DHT22;13304;48.464;8.712;2023-08-06T09:35:47;17.10;88.00
25352;DHT22;13304;48.464;8.712;2023-08-06T09:38:13;17.10;88.50
25352;DHT22;13304;48.464;8.712;2023-08-06T09:40:39;17.10;88.30
25352;DHT22;13304;48.464;8.712;2023-08-06T09:43:08;17.00;88.20
25352;DHT22;13304;48.464;8.712;2023-08-06T09:45:37;17.00;88.50
25352;DHT22;13304;48.464;8.712;2023-08-06T09:48:05;17.00;88.40
25352;DHT22;13304;48.464;8.712;2023-08-06T09:50:33;16.90;88.60
25352;DHT22;13304;48.464;8.712;2023-08-06T09:53:00;16.90;88.90
25352;DHT22;13304;48.464;8.712;2023-08-06T09:55:28;16.90;88.90
25352;DHT22;13304;48.464;8.712;2023-08-06T09:57:54;16.90;89.30
25352;DHT22;13304;48.464;8.712;2023-08-06T10:00:20;16.90;89.70
25352;DHT22;13304;48.464;8.712;2023-08-06T10:02:47;16.90;89.90
25352;DHT22;13304;48.464;8.712;2023-08-06T10:05:14;16.90;90.00
25352;DHT22;13304;48.464;8.712;2023-08-06T10:07:44;16.90;90.00
25352;DHT22;13304;48.464;8.712;2023-08-06T10:10:11;16.90;90.10
25352;DHT22;13304;48.464;8.712;2023-08-06T10:12:44;16.90;90.20
25352;DHT22;13304;48.464;8.712;2023-08-06T10:15:15;16.90;90.30
25352;DHT22;13304;48.464;8.712;2023-08-06T10:17:43;17.00;90.30
25352;DHT22;13304;48.464;8.712;2023-08-06T10:20:11;17.00;90.30
25352;DHT22;13304;48.464;8.712;2023-08-06T10:22:43;17.00;90.20
25352;DHT22;13304;48.464;8.712;2023-08-06T10:25:16;17.00;90.10
25352;DHT22;13304;48.464;8.712;2023-08-06T10:33:00;17.00;90.10
25352;DHT22;13304;48.464;8.712;2023-08-06T10:35:45;17.10;90.10
25352;DHT22;13304;48.464;8.712;2023-08-06T10:38:19;17.00;90.20
25352;DHT22;13304;48.464;8.712;2023-08-06T10:43:36;17.10;90.20
25352;DHT22;13304;48.464;8.712;2023-08-06T10:46:10;17.00;90.20
25352;DHT22;13304;48.464;8.712;2023-08-06T10:48:47;17.00;90.30
25352;DHT22;13304;48.464;8.712;2023-08-06T10:51:14;17.00;90.70
25352;DHT22;13304;48.464;8.712;2023-08-06T10:53:46;17.10;90.90
25352;DHT22;13304;48.464;8.712;2023-08-06T10:56:20;17.10;91.40
25352;DHT22;13304;48.464;8.712;2023-08-06T10:58:51;17.10;91.10
25352;DHT22;13304;48.464;8.712;2023-08-06T11:01:19;17.20;91.20
25352;DHT22;13304;48.464;8.712;2023-08-06T11:03:47;17.20;91.00
25352;DHT22;13304;48.464;8.712;2023-08-06T11:06:21;17.30;90.70
25352;DHT22;13304;48.464;8.712;2023-08-06T11:08:53;17.30;90.60
25352;DHT22;13304;48.464;8.712;2023-08-06T11:11:19;17.30;90.50
25352;DHT22;13304;48.464;8.712;2023-08-06T11:13:49;17.40;90.50
25352;DHT22;13304;48.464;8.712;2023-08-06T11:16:20;17.50;90.40
25352;DHT22;13304;48.464;8.712;2023-08-06T11:18:46;17.50;90.00
25352;DHT22;13304;48.464;8.712;2023-08-06T11:21:13;17.50;89.80
25352;DHT22;13304;48.464;8.712;2023-08-06T11:23:39;17.50;88.70
25352;DHT22;13304;48.464;8.712;2023-08-06T11:26:05;17.40;88.00
25352;DHT22;13304;48.464;8.712;2023-08-06T11:28:31;17.40;88.00
25352;DHT22;13304;48.464;8.712;2023-08-06T11:30:59;17.40;88.20
25352;DHT22;13304;48.464;8.712;2023-08-06T11:33:28;17.30;88.30
25352;DHT22;13304;48.464;8.712;2023-08-06T11:35:58;17.30;88.60
25352;DHT22;13304;48.464;8.712;2023-08-06T11:38:28;17.30;88.90
25352;DHT22;13304;48.464;8.712;2023-08-06T11:40:54;17.20;89.00
25352;DHT22;13304;48.464;8.712;2023-08-06T11:43:21;17.20;88.90
25352;DHT22;13304;48.464;8.712;2023-08-06T11:45:48;17.20;87.90
25352;DHT22;13304;48.464;8.712;2023-08-06T11:48:14;17.20;87.90
25352;DHT22;13304;48.464;8.712;2023-08-06T11:50:40;17.20;87.50
25352;DHT22;13304;48.464;8.712;2023-08-06T11:53:06;17.20;87.70
25352;DHT22;13304;48.464;8.712;2023-08-06T11:55:32;17.20;87.10
25352;DHT22;13304;48.464;8.712;2023-08-06T11:58:02;17.20;87.30
25352;DHT22;13304;48.464;8.712;2023-08-06T12:00:32;17.10;86.60
25352;DHT22;13304;48.464;8.712;2023-08-06T12:02:59;17.10;86.10
25352;DHT22;13304;48.464;8.712;2023-08-06T12:05:30;17.10;86.30
25352;DHT22;13304;48.464;8.712;2023-08-06T12:07:58;17.10;86.00
25352;DHT22;13304;48.464;8.712;2023-08-06T12:10:26;17.10;86.50
25352;DHT22;13304;48.464;8.712;2023-08-06T12:12:52;17.10;87.00
25352;DHT22;13304;48.464;8.712;2023-08-06T12:15:20;17.10;87.30
25352;DHT22;13304;48.464;8.712;2023-08-06T12:17:49;17.10;87.80
25352;DHT22;13304;48.464;8.712;2023-08-06T12:20:15;17.10;87.50
25352;DHT22;13304;48.464;8.712;2023-08-06T12:22:41;17.20;87.60
25352;DHT22;13304;48.464;8.712;2023-08-06T12:25:11;17.20;88.30
25352;DHT22;13304;48.464;8.712;2023-08-06T12:27:43;17.30;87.90
25352;DHT22;13304;48.464;8.712;2023-08-06T12:30:10;17.30;87.00
25352;DHT22;13304;48.464;8.712;2023-08-06T12:32:36;17.30;86.00
25352;DHT22;13304;48.464;8.712;2023-08-06T12:35:02;17.30;85.30
25352;DHT22;13304;48.464;8.712;2023-08-06T12:37:28;17.30;86.10
25352;DHT22;13304;48.464;8.712;2023-08-06T12:39:54;17.40;86.30
25352;DHT22;13304;48.464;8.712;2023-08-06T12:42:22;17.50;87.30
25352;DHT22;13304;48.464;8.712;2023-08-06T12:44:49;17.50;86.50
25352;DHT22;13304;48.464;8.712;2023-08-06T12:47:16;17.50;87.60
25352;DHT22;13304;48.464;8.712;2023-08-06T12:49:42;17.70;86.90
25352;DHT22;13304;48.464;8.712;2023-08-06T12:52:10;17.70;86.80
25352;DHT22;13304;48.464;8.712;2023-08-06T12:54:38;17.80;86.30
25352;DHT22;13304;48.464;8.712;2023-08-06T12:57:06;17.90;85.70
25352;DHT22;13304;48.464;8.712;2023-08-06T12:59:32;18.00;86.00
25352;DHT22;13304;48.464;8.712;2023-08-06T13:02:05;18.00;86.00
25352;DHT22;13304;48.464;8.712;2023-08-06T13:04:30;18.10;85.30
25352;DHT22;13304;48.464;8.712;2023-08-06T13:06:57;18.10;85.00
25352;DHT22;13304;48.464;8.712;2023-08-06T13:09:22;18.10;84.90
25352;DHT22;13304;48.464;8.712;2023-08-06T13:11:48;18.10;84.50
25352;DHT22;13304;48.464;8.712;2023-08-06T13:14:15;18.10;84.50
25352;DHT22;13304;48.464;8.712;2023-08-06T13:16:42;18.10;84.90
25352;DHT22;13304;48.464;8.712;2023-08-06T13:19:09;18.10;85.10
25352;DHT22;13304;48.464;8.712;2023-08-06T13:24:06;18.00;85.40
25352;DHT22;13304;48.464;8.712;2023-08-06T13:26:32;17.90;85.20
25352;DHT22;13304;48.464;8.712;2023-08-06T13:29:01;17.90;85.20
25352;DHT22;13304;48.464;8.712;2023-08-06T13:31:27;17.80;85.30
25352;DHT22;13304;48.464;8.712;2023-08-06T13:33:54;17.60;85.90
25352;DHT22;13304;48.464;8.712;2023-08-06T13:36:23;17.70;86.50
25352;DHT22;13304;48.464;8.712;2023-08-06T13:38:49;17.70;87.20
25352;DHT22;13304;48.464;8.712;2023-08-06T13:41:15;17.60;86.80
25352;DHT22;13304;48.464;8.712;2023-08-06T13:43:40;17.60;86.60
25352;DHT22;13304;48.464;8.712;2023-08-06T13:46:06;17.50;87.50
25352;DHT22;13304;48.464;8.712;2023-08-06T13:48:34;17.50;88.60
25352;DHT22;13304;48.464;8.712;2023-08-06T13:51:00;17.50;89.10
25352;DHT22;13304;48.464;8.712;2023-08-06T13:53:26;17.50;89.50
25352;DHT22;13304;48.464;8.712;2023-08-06T13:55:55;17.60;89.40
25352;DHT22;13304;48.464;8.712;2023-08-06T13:58:22;17.50;87.30
25352;DHT22;13304;48.464;8.712;2023-08-06T14:00:48;17.60;86.50
25352;DHT22;13304;48.464;8.712;2023-08-06T14:03:13;17.60;86.10
25352;DHT22;13304;48.464;8.712;2023-08-06T14:05:39;17.60;85.70
25352;DHT22;13304;48.464;8.712;2023-08-06T14:08:07;17.60;85.40
25352;DHT22;13304;48.464;8.712;2023-08-06T14:10:32;17.50;85.90
25352;DHT22;13304;48.464;8.712;2023-08-06T14:12:58;17.50;85.00
25352;DHT22;13304;48.464;8.712;2023-08-06T14:15:26;17.40;85.30
25352;DHT22;13304;48.464;8.712;2023-08-06T14:17:53;17.50;85.90
25352;DHT22;13304;48.464;8.712;2023-08-06T14:20:21;17.50;85.70
25352;DHT22;13304;48.464;8.712;2023-08-06T14:22:47;17.50;85.50
25352;DHT22;13304;48.464;8.712;2023-08-06T14:25:12;17.40;85.60
25352;DHT22;13304;48.464;8.712;2023-08-06T14:27:38;17.40;85.60
25352;DHT22;13304;48.464;8.712;2023-08-06T14:30:06;17.30;85.30
25352;DHT22;13304;48.464;8.712;2023-08-06T14:32:32;17.30;86.10
25352;DHT22;13304;48.464;8.712;2023-08-06T14:34:58;17.30;85.90
25352;DHT22;13304;48.464;8.712;2023-08-06T14:37:24;17.20;86.00
25352;DHT22;13304;48.464;8.712;2023-08-06T14:39:51;17.20;86.00
25352;DHT22;13304;48.464;8.712;2023-08-06T14:42:17;17.20;86.20
25352;DHT22;13304;48.464;8.712;2023-08-06T14:44:43;17.20;86.60
25352;DHT22;13304;48.464;8.712;2023-08-06T14:47:11;17.30;87.10
25352;DHT22;13304;48.464;8.712;2023-08-06T14:49:37;17.30;87.70
25352;DHT22;13304;48.464;8.712;2023-08-06T14:52:04;17.30;86.70
25352;DHT22;13304;48.464;8.712;2023-08-06T14:54:29;17.40;86.30
25352;DHT22;13304;48.464;8.712;2023-08-06T14:56:56;17.40;85.90
25352;DHT22;13304;48.464;8.712;2023-08-06T14:59:22;17.50;84.10
25352;DHT22;13304;48.464;8.712;2023-08-06T15:01:48;17.50;83.40
25352;DHT22;13304;48.464;8.712;2023-08-06T15:04:13;17.60;84.30
25352;DHT22;13304;48.464;8.712;2023-08-06T15:06:39;17.60;81.40
25352;DHT22;13304;48.464;8.712;2023-08-06T15:09:06;17.70;82.30
25352;DHT22;13304;48.464;8.712;2023-08-06T15:11:32;17.70;81.50
25352;DHT22;13304;48.464;8.712;2023-08-06T15:13:58;17.70;79.40
25352;DHT22;13304;48.464;8.712;2023-08-06T15:16:26;17.80;79.10
25352;DHT22;13304;48.464;8.712;2023-08-06T15:18:52;17.80;79.30
25352;DHT22;13304;48.464;8.712;2023-08-06T15:21:20;17.80;79.10
25352;DHT22;13304;48.464;8.712;2023-08-06T15:23:46;17.80;78.60
25352;DHT22;13304;48.464;8.712;2023-08-06T15:26:14;17.80;79.90
25352;DHT22;13304;48.464;8.712;2023-08-06T15:28:39;17.90;79.90
25352;DHT22;13304;48.464;8.712;2023-08-06T15:31:05;18.00;79.10
25352;DHT22;13304;48.464;8.712;2023-08-06T15:33:33;18.00;78.10
25352;DHT22;13304;48.464;8.712;2023-08-06T15:35:59;18.20;77.80
25352;DHT22;13304;48.464;8.712;2023-08-06T15:38:27;18.40;77.20
25352;DHT22;13304;48.464;8.712;2023-08-06T15:40:53;18.50;76.00
25352;DHT22;13304;48.464;8.712;2023-08-06T15:43:19;18.50;75.60